sensor_id;sensor_type;location;lat;lon;timestamp;P1;durP1;ratioP1;P2;durP2;ratioP2
60831;SDS011;46665;51.558;-0.448;2022-12-17T00:00:28;10.55;;;6.95;;
60831;SDS011;46665;51.558;-0.448;2022-12-17T00:03:31;12.73;;;5.85;;
60831;SDS011;46665;51.558;-0.448;2022-12-17T00:06:34;10.05;;;6.20;;
60831;SDS011;46665;51.558;-0.448;2022-12-17T00:09:38;12.20;;;7.68;;
60831;SDS011;46665;51.558;-0.448;2022-12-17T00:12:41;11.35;;;7.50;;
60831;SDS011;46665;51.558;-0.448;2022-12-17T00:15:49;25.65;;;7.95;;
60831;SDS011;46665;51.558;-0.448;2022-12-17T00:18:53;16.02;;;7.82;;
60831;SDS011;46665;51.558;-0.448;2022-12-17T00:21:56;11.55;;;5.03;;
60831;SDS011;46665;51.558;-0.448;2022-12-17T00:24:59;17.35;;;7.85;;
60831;SDS011;46665;51.558;-0.448;2022-12-17T00:28:01;9.18;;;5.55;;
60831;SDS011;46665;51.558;-0.448;2022-12-17T00:31:04;7.30;;;5.78;;
60831;SDS011;46665;51.558;-0.448;2022-12-17T00:34:07;7.40;;;6.68;;
60831;SDS011;46665;51.558;-0.448;2022-12-17T00:37:10;9.77;;;6.85;;
60831;SDS011;46665;51.558;-0.448;2022-12-17T00:40:13;13.95;;;6.63;;
60831;SDS011;46665;51.558;-0.448;2022-12-17T00:43:16;12.43;;;6.47;;
60831;SDS011;46665;51.558;-0.448;2022-12-17T00:46:38;10.35;;;5.95;;
60831;SDS011;46665;51.558;-0.448;2022-12-17T00:49:41;17.40;;;6.78;;
60831;SDS011;46665;51.558;-0.448;2022-12-17T00:52:46;12.20;;;6.45;;
60831;SDS011;46665;51.558;-0.448;2022-12-17T00:55:49;18.80;;;4.43;;
60831;SDS011;46665;51.558;-0.448;2022-12-17T00:58:52;10.45;;;6.63;;
60831;SDS011;46665;51.558;-0.448;2022-12-17T01:01:55;13.85;;;6.05;;
60831;SDS011;46665;51.558;-0.448;2022-12-17T01:04:58;8.25;;;5.40;;
60831;SDS011;46665;51.558;-0.448;2022-12-17T01:08:07;11.13;;;4.43;;
60831;SDS011;46665;51.558;-0.448;2022-12-17T01:11:10;8.50;;;6.18;;
60831;SDS011;46665;51.558;-0.448;2022-12-17T01:14:13;10.02;;;6.75;;
60831;SDS011;46665;51.558;-0.448;2022-12-17T01:17:16;16.55;;;7.57;;
60831;SDS011;46665;51.558;-0.448;2022-12-17T01:20:19;9.00;;;5.88;;
60831;SDS011;46665;51.558;-0.448;2022-12-17T01:23:22;8.80;;;6.00;;
60831;SDS011;46665;51.558;-0.448;2022-12-17T01:26:24;16.08;;;5.68;;
60831;SDS011;46665;51.558;-0.448;2022-12-17T01:29:27;11.73;;;7.85;;
60831;SDS011;46665;51.558;-0.448;2022-12-17T01:32:30;11.60;;;5.72;;
60831;SDS011;46665;51.558;-0.448;2022-12-17T01:35:33;19.98;;;6.03;;
60831;SDS011;46665;51.558;-0.448;2022-12-17T01:38:35;23.80;;;6.45;;
60831;SDS011;46665;51.558;-0.448;2022-12-17T01:41:38;10.15;;;6.20;;
60831;SDS011;46665;51.558;-0.448;2022-12-17T01:44:49;13.23;;;8.27;;
60831;SDS011;46665;51.558;-0.448;2022-12-17T01:47:56;16.13;;;8.35;;
60831;SDS011;46665;51.558;-0.448;2022-12-17T01:51:03;6.80;;;5.05;;
60831;SDS011;46665;51.558;-0.448;2022-12-17T01:54:06;19.55;;;6.90;;
60831;SDS011;46665;51.558;-0.448;2022-12-17T01:57:09;8.85;;;5.82;;
60831;SDS011;46665;51.558;-0.448;2022-12-17T02:00:15;9.05;;;6.88;;
60831;SDS011;46665;51.558;-0.448;2022-12-17T02:03:19;29.33;;;7.07;;
60831;SDS011;46665;51.558;-0.448;2022-12-17T02:06:26;9.90;;;6.80;;
60831;SDS011;46665;51.558;-0.448;2022-12-17T02:09:41;14.45;;;8.10;;
60831;SDS011;46665;51.558;-0.448;2022-12-17T02:12:52;7.70;;;6.55;;
60831;SDS011;46665;51.558;-0.448;2022-12-17T02:25:58;11.68;;;7.70;;
60831;SDS011;46665;51.558;-0.448;2022-12-17T02:29:05;17.58;;;7.18;;
60831;SDS011;46665;51.558;-0.448;2022-12-17T02:32:09;10.52;;;6.45;;
60831;SDS011;46665;51.558;-0.448;2022-12-17T02:35:19;19.23;;;8.63;;
60831;SDS011;46665;51.558;-0.448;2022-12-17T02:38:28;12.55;;;7.00;;
60831;SDS011;46665;51.558;-0.448;2022-12-17T02:41:38;6.25;;;5.47;;
60831;SDS011;46665;51.558;-0.448;2022-12-17T02:44:44;13.43;;;7.95;;
60831;SDS011;46665;51.558;-0.448;2022-12-17T02:47:48;11.18;;;6.88;;
60831;SDS011;46665;51.558;-0.448;2022-12-17T02:50:53;8.15;;;6.55;;
60831;SDS011;46665;51.558;-0.448;2022-12-17T02:54:01;5.45;;;4.63;;
60831;SDS011;46665;51.558;-0.448;2022-12-17T02:57:05;15.52;;;7.05;;
60831;SDS011;46665;51.558;-0.448;2022-12-17T03:00:07;7.53;;;5.68;;
60831;SDS011;46665;51.558;-0.448;2022-12-17T03:03:11;13.98;;;6.70;;
60831;SDS011;46665;51.558;-0.448;2022-12-17T03:06:13;8.02;;;4.47;;
60831;SDS011;46665;51.558;-0.448;2022-12-17T03:09:16;15.82;;;5.45;;
60831;SDS011;46665;51.558;-0.448;2022-12-17T03:12:19;23.92;;;8.73;;
60831;SDS011;46665;51.558;-0.448;2022-12-17T03:15:22;14.80;;;6.80;;
60831;SDS011;46665;51.558;-0.448;2022-12-17T03:18:25;9.32;;;6.38;;
60831;SDS011;46665;51.558;-0.448;2022-12-17T03:21:27;10.07;;;6.65;;
60831;SDS011;46665;51.558;-0.448;2022-12-17T03:24:31;6.57;;;5.90;;
60831;SDS011;46665;51.558;-0.448;2022-12-17T03:27:33;27.85;;;6.65;;
60831;SDS011;46665;51.558;-0.448;2022-12-17T03:30:36;7.78;;;6.40;;
60831;SDS011;46665;51.558;-0.448;2022-12-17T03:33:39;12.18;;;6.85;;
60831;SDS011;46665;51.558;-0.448;2022-12-17T03:36:42;16.73;;;8.18;;
60831;SDS011;46665;51.558;-0.448;2022-12-17T03:39:44;10.63;;;4.68;;
60831;SDS011;46665;51.558;-0.448;2022-12-17T03:42:47;32.15;;;8.60;;
60831;SDS011;46665;51.558;-0.448;2022-12-17T03:45:51;24.45;;;7.38;;
60831;SDS011;46665;51.558;-0.448;2022-12-17T03:48:54;24.70;;;8.35;;
60831;SDS011;46665;51.558;-0.448;2022-12-17T03:51:57;21.13;;;8.18;;
60831;SDS011;46665;51.558;-0.448;2022-12-17T03:55:00;11.68;;;7.20;;
60831;SDS011;46665;51.558;-0.448;2022-12-17T03:58:03;9.93;;;6.45;;
60831;SDS011;46665;51.558;-0.448;2022-12-17T04:01:06;14.80;;;8.40;;
60831;SDS011;46665;51.558;-0.448;2022-12-17T04:04:08;30.25;;;6.72;;
60831;SDS011;46665;51.558;-0.448;2022-12-17T04:07:11;18.38;;;4.93;;
60831;SDS011;46665;51.558;-0.448;2022-12-17T04:10:14;8.02;;;7.05;;
60831;SDS011;46665;51.558;-0.448;2022-12-17T04:13:17;7.43;;;5.05;;
60831;SDS011;46665;51.558;-0.448;2022-12-17T04:16:20;19.35;;;6.95;;
60831;SDS011;46665;51.558;-0.448;2022-12-17T04:19:23;12.23;;;7.05;;
60831;SDS011;46665;51.558;-0.448;2022-12-17T04:22:25;13.98;;;6.57;;
60831;SDS011;46665;51.558;-0.448;2022-12-17T04:25:28;9.57;;;7.00;;
60831;SDS011;46665;51.558;-0.448;2022-12-17T04:28:31;17.55;;;7.03;;
60831;SDS011;46665;51.558;-0.448;2022-12-17T04:31:34;9.35;;;6.65;;
60831;SDS011;46665;51.558;-0.448;2022-12-17T04:34:37;18.48;;;8.15;;
60831;SDS011;46665;51.558;-0.448;2022-12-17T04:37:40;19.13;;;4.93;;
60831;SDS011;46665;51.558;-0.448;2022-12-17T04:40:43;10.23;;;6.15;;
60831;SDS011;46665;51.558;-0.448;2022-12-17T04:43:46;13.38;;;7.70;;
60831;SDS011;46665;51.558;-0.448;2022-12-17T04:46:49;15.80;;;8.70;;
60831;SDS011;46665;51.558;-0.448;2022-12-17T04:49:51;11.27;;;5.53;;
60831;SDS011;46665;51.558;-0.448;2022-12-17T04:53:01;27.05;;;7.50;;
60831;SDS011;46665;51.558;-0.448;2022-12-17T04:56:05;6.57;;;5.97;;
60831;SDS011;46665;51.558;-0.448;2022-12-17T04:59:08;7.30;;;6.15;;
60831;SDS011;46665;51.558;-0.448;2022-12-17T05:02:11;23.05;;;6.85;;
60831;SDS011;46665;51.558;-0.448;2022-12-17T05:05:14;14.13;;;6.45;;
60831;SDS011;46665;51.558;-0.448;2022-12-17T05:08:16;9.07;;;6.80;;
60831;SDS011;46665;51.558;-0.448;2022-12-17T05:11:19;6.30;;;5.70;;
60831;SDS011;46665;51.558;-0.448;2022-12-17T05:14:22;16.60;;;8.82;;
60831;SDS011;46665;51.558;-0.448;2022-12-17T05:17:25;8.80;;;6.45;;
60831;SDS011;46665;51.558;-0.448;2022-12-17T05:20:28;15.38;;;6.20;;
60831;SDS011;46665;51.558;-0.448;2022-12-17T05:23:31;11.82;;;5.25;;
60831;SDS011;46665;51.558;-0.448;2022-12-17T05:26:33;18.15;;;6.57;;
60831;SDS011;46665;51.558;-0.448;2022-12-17T05:29:36;7.43;;;4.47;;
60831;SDS011;46665;51.558;-0.448;2022-12-17T05:32:39;6.18;;;4.03;;
60831;SDS011;46665;51.558;-0.448;2022-12-17T05:35:42;16.98;;;7.88;;
60831;SDS011;46665;51.558;-0.448;2022-12-17T05:38:45;10.32;;;6.50;;
60831;SDS011;46665;51.558;-0.448;2022-12-17T05:41:49;16.25;;;5.75;;
60831;SDS011;46665;51.558;-0.448;2022-12-17T05:44:52;17.70;;;6.85;;
60831;SDS011;46665;51.558;-0.448;2022-12-17T05:47:58;10.90;;;5.45;;
60831;SDS011;46665;51.558;-0.448;2022-12-17T05:51:01;12.05;;;5.28;;
60831;SDS011;46665;51.558;-0.448;2022-12-17T05:54:03;6.43;;;4.40;;
60831;SDS011;46665;51.558;-0.448;2022-12-17T05:57:06;4.82;;;4.40;;
60831;SDS011;46665;51.558;-0.448;2022-12-17T06:00:09;10.05;;;4.82;;
60831;SDS011;46665;51.558;-0.448;2022-12-17T06:03:13;15.43;;;5.05;;
60831;SDS011;46665;51.558;-0.448;2022-12-17T06:06:16;10.95;;;5.10;;
60831;SDS011;46665;51.558;-0.448;2022-12-17T06:09:19;9.23;;;6.18;;
60831;SDS011;46665;51.558;-0.448;2022-12-17T06:12:22;8.95;;;4.50;;
60831;SDS011;46665;51.558;-0.448;2022-12-17T06:15:25;17.13;;;5.40;;
60831;SDS011;46665;51.558;-0.448;2022-12-17T06:18:27;6.75;;;6.03;;
60831;SDS011;46665;51.558;-0.448;2022-12-17T06:21:30;12.65;;;7.50;;
60831;SDS011;46665;51.558;-0.448;2022-12-17T06:24:33;26.30;;;7.15;;
60831;SDS011;46665;51.558;-0.448;2022-12-17T06:27:36;19.35;;;9.98;;
60831;SDS011;46665;51.558;-0.448;2022-12-17T06:30:39;5.22;;;4.30;;
60831;SDS011;46665;51.558;-0.448;2022-12-17T06:33:41;16.25;;;8.13;;
60831;SDS011;46665;51.558;-0.448;2022-12-17T06:36:44;15.90;;;6.18;;
60831;SDS011;46665;51.558;-0.448;2022-12-17T06:39:47;10.35;;;7.32;;
60831;SDS011;46665;51.558;-0.448;2022-12-17T06:42:51;10.70;;;5.45;;
60831;SDS011;46665;51.558;-0.448;2022-12-17T06:45:54;18.50;;;6.47;;
60831;SDS011;46665;51.558;-0.448;2022-12-17T06:49:14;5.50;;;3.75;;
60831;SDS011;46665;51.558;-0.448;2022-12-17T06:52:17;16.73;;;6.38;;
60831;SDS011;46665;51.558;-0.448;2022-12-17T06:55:19;14.32;;;6.38;;
60831;SDS011;46665;51.558;-0.448;2022-12-17T06:58:22;6.43;;;4.95;;
60831;SDS011;46665;51.558;-0.448;2022-12-17T07:01:25;7.35;;;4.20;;
60831;SDS011;46665;51.558;-0.448;2022-12-17T07:04:29;20.98;;;5.88;;
60831;SDS011;46665;51.558;-0.448;2022-12-17T07:07:32;12.55;;;7.45;;
60831;SDS011;46665;51.558;-0.448;2022-12-17T07:10:35;4.47;;;3.88;;
60831;SDS011;46665;51.558;-0.448;2022-12-17T07:13:37;12.52;;;5.97;;
60831;SDS011;46665;51.558;-0.448;2022-12-17T07:16:40;7.78;;;4.50;;
60831;SDS011;46665;51.558;-0.448;2022-12-17T07:19:43;19.10;;;4.22;;
60831;SDS011;46665;51.558;-0.448;2022-12-17T07:22:46;21.33;;;7.00;;
60831;SDS011;46665;51.558;-0.448;2022-12-17T07:25:49;8.15;;;5.80;;
60831;SDS011;46665;51.558;-0.448;2022-12-17T07:28:51;13.23;;;6.03;;
60831;SDS011;46665;51.558;-0.448;2022-12-17T07:31:54;9.95;;;4.45;;
60831;SDS011;46665;51.558;-0.448;2022-12-17T07:34:57;11.25;;;4.63;;
60831;SDS011;46665;51.558;-0.448;2022-12-17T07:38:00;6.65;;;5.32;;
60831;SDS011;46665;51.558;-0.448;2022-12-17T07:41:05;6.70;;;4.75;;
60831;SDS011;46665;51.558;-0.448;2022-12-17T07:44:15;13.20;;;3.10;;
60831;SDS011;46665;51.558;-0.448;2022-12-17T07:47:18;12.95;;;4.60;;
60831;SDS011;46665;51.558;-0.448;2022-12-17T07:50:21;12.23;;;4.93;;
60831;SDS011;46665;51.558;-0.448;2022-12-17T07:53:24;6.30;;;4.13;;
60831;SDS011;46665;51.558;-0.448;2022-12-17T07:56:26;5.50;;;4.32;;
60831;SDS011;46665;51.558;-0.448;2022-12-17T07:59:29;9.90;;;3.92;;
60831;SDS011;46665;51.558;-0.448;2022-12-17T08:02:32;11.50;;;5.28;;
60831;SDS011;46665;51.558;-0.448;2022-12-17T08:05:35;9.07;;;4.88;;
60831;SDS011;46665;51.558;-0.448;2022-12-17T08:08:38;4.68;;;4.05;;
60831;SDS011;46665;51.558;-0.448;2022-12-17T08:11:40;8.82;;;5.35;;
60831;SDS011;46665;51.558;-0.448;2022-12-17T08:14:43;6.57;;;4.22;;
60831;SDS011;46665;51.558;-0.448;2022-12-17T08:17:46;17.77;;;5.03;;
60831;SDS011;46665;51.558;-0.448;2022-12-17T08:20:49;11.52;;;5.90;;
60831;SDS011;46665;51.558;-0.448;2022-12-17T08:23:52;9.70;;;4.35;;
60831;SDS011;46665;51.558;-0.448;2022-12-17T08:26:56;7.38;;;4.38;;
60831;SDS011;46665;51.558;-0.448;2022-12-17T08:29:59;8.93;;;3.70;;
60831;SDS011;46665;51.558;-0.448;2022-12-17T08:33:05;5.35;;;3.65;;
60831;SDS011;46665;51.558;-0.448;2022-12-17T08:36:07;17.27;;;4.30;;
60831;SDS011;46665;51.558;-0.448;2022-12-17T08:39:10;16.13;;;4.72;;
60831;SDS011;46665;51.558;-0.448;2022-12-17T08:42:13;5.75;;;4.32;;
60831;SDS011;46665;51.558;-0.448;2022-12-17T08:45:16;6.68;;;4.60;;
60831;SDS011;46665;51.558;-0.448;2022-12-17T08:48:19;11.32;;;5.57;;
60831;SDS011;46665;51.558;-0.448;2022-12-17T08:51:21;8.45;;;4.63;;
60831;SDS011;46665;51.558;-0.448;2022-12-17T08:54:25;23.13;;;5.15;;
60831;SDS011;46665;51.558;-0.448;2022-12-17T08:57:28;21.27;;;6.72;;
60831;SDS011;46665;51.558;-0.448;2022-12-17T09:00:31;5.38;;;4.97;;
60831;SDS011;46665;51.558;-0.448;2022-12-17T09:03:34;4.53;;;3.58;;
60831;SDS011;46665;51.558;-0.448;2022-12-17T09:06:37;14.43;;;8.85;;
60831;SDS011;46665;51.558;-0.448;2022-12-17T09:09:39;10.45;;;3.67;;
60831;SDS011;46665;51.558;-0.448;2022-12-17T09:12:42;7.78;;;3.47;;
60831;SDS011;46665;51.558;-0.448;2022-12-17T09:15:49;6.82;;;4.78;;
60831;SDS011;46665;51.558;-0.448;2022-12-17T09:18:56;5.88;;;4.65;;
60831;SDS011;46665;51.558;-0.448;2022-12-17T09:21:59;6.07;;;3.38;;
60831;SDS011;46665;51.558;-0.448;2022-12-17T09:25:02;9.95;;;4.00;;
60831;SDS011;46665;51.558;-0.448;2022-12-17T09:28:05;12.38;;;5.93;;
60831;SDS011;46665;51.558;-0.448;2022-12-17T09:31:08;17.10;;;8.27;;
60831;SDS011;46665;51.558;-0.448;2022-12-17T09:34:11;12.90;;;6.20;;
60831;SDS011;46665;51.558;-0.448;2022-12-17T09:37:13;4.68;;;3.40;;
60831;SDS011;46665;51.558;-0.448;2022-12-17T09:40:17;3.95;;;3.60;;
60831;SDS011;46665;51.558;-0.448;2022-12-17T09:46:51;13.68;;;4.43;;
60831;SDS011;46665;51.558;-0.448;2022-12-17T09:50:04;7.53;;;5.72;;
60831;SDS011;46665;51.558;-0.448;2022-12-17T09:53:36;8.55;;;4.55;;
60831;SDS011;46665;51.558;-0.448;2022-12-17T09:56:41;8.83;;;6.37;;
60831;SDS011;46665;51.558;-0.448;2022-12-17T09:59:45;9.70;;;5.82;;
60831;SDS011;46665;51.558;-0.448;2022-12-17T10:02:48;8.55;;;5.90;;
60831;SDS011;46665;51.558;-0.448;2022-12-17T10:05:50;6.75;;;5.47;;
60831;SDS011;46665;51.558;-0.448;2022-12-17T10:08:59;6.85;;;6.05;;
60831;SDS011;46665;51.558;-0.448;2022-12-17T10:12:11;13.70;;;5.75;;
60831;SDS011;46665;51.558;-0.448;2022-12-17T10:15:19;15.13;;;5.32;;
60831;SDS011;46665;51.558;-0.448;2022-12-17T10:18:22;6.07;;;5.53;;
60831;SDS011;46665;51.558;-0.448;2022-12-17T10:21:25;8.63;;;5.32;;
60831;SDS011;46665;51.558;-0.448;2022-12-17T10:24:29;8.23;;;5.95;;
60831;SDS011;46665;51.558;-0.448;2022-12-17T10:27:32;10.40;;;4.80;;
60831;SDS011;46665;51.558;-0.448;2022-12-17T10:30:51;7.07;;;5.18;;
60831;SDS011;46665;51.558;-0.448;2022-12-17T10:33:57;11.63;;;5.93;;
60831;SDS011;46665;51.558;-0.448;2022-12-17T10:37:00;8.88;;;5.07;;
60831;SDS011;46665;51.558;-0.448;2022-12-17T10:40:04;12.07;;;6.47;;
60831;SDS011;46665;51.558;-0.448;2022-12-17T10:43:21;4.43;;;3.53;;
60831;SDS011;46665;51.558;-0.448;2022-12-17T10:49:27;11.85;;;6.72;;
60831;SDS011;46665;51.558;-0.448;2022-12-17T10:52:30;10.02;;;5.05;;
60831;SDS011;46665;51.558;-0.448;2022-12-17T10:55:34;5.22;;;3.63;;
60831;SDS011;46665;51.558;-0.448;2022-12-17T10:58:42;11.48;;;7.18;;
60831;SDS011;46665;51.558;-0.448;2022-12-17T11:01:47;5.15;;;4.63;;
60831;SDS011;46665;51.558;-0.448;2022-12-17T11:04:59;16.60;;;6.80;;
60831;SDS011;46665;51.558;-0.448;2022-12-17T11:08:04;11.43;;;5.68;;
60831;SDS011;46665;51.558;-0.448;2022-12-17T11:11:09;12.35;;;6.13;;
60831;SDS011;46665;51.558;-0.448;2022-12-17T11:14:15;23.33;;;6.65;;
60831;SDS011;46665;51.558;-0.448;2022-12-17T11:17:18;6.57;;;4.50;;
60831;SDS011;46665;51.558;-0.448;2022-12-17T11:20:25;12.38;;;5.43;;
60831;SDS011;46665;51.558;-0.448;2022-12-17T11:23:40;5.63;;;4.25;;
60831;SDS011;46665;51.558;-0.448;2022-12-17T11:26:48;14.82;;;6.35;;
60831;SDS011;46665;51.558;-0.448;2022-12-17T11:29:55;10.02;;;6.20;;
60831;SDS011;46665;51.558;-0.448;2022-12-17T11:36:39;17.80;;;7.63;;
60831;SDS011;46665;51.558;-0.448;2022-12-17T11:50:15;8.65;;;4.13;;
60831;SDS011;46665;51.558;-0.448;2022-12-17T12:00:39;7.63;;;5.65;;
60831;SDS011;46665;51.558;-0.448;2022-12-17T12:17:48;8.18;;;6.13;;
60831;SDS011;46665;51.558;-0.448;2022-12-17T12:31:43;3.78;;;2.78;;
60831;SDS011;46665;51.558;-0.448;2022-12-17T12:34:53;2.97;;;2.67;;
60831;SDS011;46665;51.558;-0.448;2022-12-17T12:37:59;3.17;;;2.63;;
60831;SDS011;46665;51.558;-0.448;2022-12-17T12:41:25;2.47;;;2.28;;
60831;SDS011;46665;51.558;-0.448;2022-12-17T12:48:13;4.53;;;2.38;;
60831;SDS011;46665;51.558;-0.448;2022-12-17T12:51:28;4.05;;;2.85;;
60831;SDS011;46665;51.558;-0.448;2022-12-17T12:58:00;4.50;;;2.45;;
60831;SDS011;46665;51.558;-0.448;2022-12-17T13:01:03;4.18;;;2.58;;
60831;SDS011;46665;51.558;-0.448;2022-12-17T13:04:51;5.07;;;2.35;;
60831;SDS011;46665;51.558;-0.448;2022-12-17T13:07:37;4.63;;;2.25;;
60831;SDS011;46665;51.558;-0.448;2022-12-17T13:10:25;1.90;;;1.70;;
60831;SDS011;46665;51.558;-0.448;2022-12-17T13:16:03;2.33;;;1.85;;
60831;SDS011;46665;51.558;-0.448;2022-12-17T13:25:17;1.40;;;1.08;;
60831;SDS011;46665;51.558;-0.448;2022-12-17T13:28:03;1.70;;;1.30;;
60831;SDS011;46665;51.558;-0.448;2022-12-17T13:30:47;3.85;;;2.05;;
60831;SDS011;46665;51.558;-0.448;2022-12-17T13:36:48;2.65;;;1.60;;
60831;SDS011;46665;51.558;-0.448;2022-12-17T13:42:37;6.18;;;2.60;;
60831;SDS011;46665;51.558;-0.448;2022-12-17T13:45:21;1.98;;;1.50;;
60831;SDS011;46665;51.558;-0.448;2022-12-17T13:48:15;6.10;;;1.48;;
60831;SDS011;46665;51.558;-0.448;2022-12-17T13:51:05;1.55;;;1.45;;
60831;SDS011;46665;51.558;-0.448;2022-12-17T13:53:50;4.68;;;2.72;;
60831;SDS011;46665;51.558;-0.448;2022-12-17T13:56:36;3.55;;;1.48;;
60831;SDS011;46665;51.558;-0.448;2022-12-17T13:59:21;7.63;;;1.10;;
60831;SDS011;46665;51.558;-0.448;2022-12-17T14:02:20;1.20;;;1.13;;
60831;SDS011;46665;51.558;-0.448;2022-12-17T14:05:07;3.67;;;1.92;;
60831;SDS011;46665;51.558;-0.448;2022-12-17T14:08:19;3.33;;;1.05;;
60831;SDS011;46665;51.558;-0.448;2022-12-17T14:11:04;2.17;;;1.10;;
60831;SDS011;46665;51.558;-0.448;2022-12-17T14:14:15;6.60;;;1.65;;
60831;SDS011;46665;51.558;-0.448;2022-12-17T14:17:14;1.58;;;1.17;;
60831;SDS011;46665;51.558;-0.448;2022-12-17T14:20:03;1.60;;;1.20;;
60831;SDS011;46665;51.558;-0.448;2022-12-17T14:22:54;2.10;;;1.65;;
60831;SDS011;46665;51.558;-0.448;2022-12-17T14:25:43;10.52;;;1.40;;
60831;SDS011;46665;51.558;-0.448;2022-12-17T14:28:29;1.17;;;1.08;;
60831;SDS011;46665;51.558;-0.448;2022-12-17T14:31:25;2.92;;;1.98;;
60831;SDS011;46665;51.558;-0.448;2022-12-17T14:34:11;1.90;;;1.35;;
60831;SDS011;46665;51.558;-0.448;2022-12-17T14:36:58;7.07;;;1.45;;
60831;SDS011;46665;51.558;-0.448;2022-12-17T14:39:43;1.92;;;1.83;;
60831;SDS011;46665;51.558;-0.448;2022-12-17T14:42:29;4.47;;;2.42;;
60831;SDS011;46665;51.558;-0.448;2022-12-17T14:48:02;1.58;;;1.25;;
60831;SDS011;46665;51.558;-0.448;2022-12-17T14:50:53;2.22;;;1.48;;
60831;SDS011;46665;51.558;-0.448;2022-12-17T14:53:38;0.95;;;0.90;;
60831;SDS011;46665;51.558;-0.448;2022-12-17T14:56:22;1.20;;;1.10;;
60831;SDS011;46665;51.558;-0.448;2022-12-17T15:02:24;2.35;;;1.35;;
60831;SDS011;46665;51.558;-0.448;2022-12-17T15:05:13;4.35;;;1.80;;
60831;SDS011;46665;51.558;-0.448;2022-12-17T15:07:58;11.05;;;1.40;;
60831;SDS011;46665;51.558;-0.448;2022-12-17T15:10:42;1.85;;;0.93;;
60831;SDS011;46665;51.558;-0.448;2022-12-17T15:13:26;2.22;;;1.70;;
60831;SDS011;46665;51.558;-0.448;2022-12-17T15:16:11;3.22;;;1.20;;
60831;SDS011;46665;51.558;-0.448;2022-12-17T15:18:56;4.20;;;1.60;;
60831;SDS011;46665;51.558;-0.448;2022-12-17T15:21:40;2.92;;;1.20;;
60831;SDS011;46665;51.558;-0.448;2022-12-17T15:24:24;6.07;;;1.65;;
60831;SDS011;46665;51.558;-0.448;2022-12-17T15:27:12;3.13;;;1.40;;
60831;SDS011;46665;51.558;-0.448;2022-12-17T15:29:57;1.33;;;0.90;;
60831;SDS011;46665;51.558;-0.448;2022-12-17T15:32:41;3.50;;;1.52;;
60831;SDS011;46665;51.558;-0.448;2022-12-17T15:35:26;1.35;;;1.02;;
60831;SDS011;46665;51.558;-0.448;2022-12-17T15:38:10;2.60;;;1.60;;
60831;SDS011;46665;51.558;-0.448;2022-12-17T15:40:54;0.75;;;0.75;;
60831;SDS011;46665;51.558;-0.448;2022-12-17T15:43:38;2.33;;;1.30;;
60831;SDS011;46665;51.558;-0.448;2022-12-17T15:46:22;1.90;;;1.45;;
60831;SDS011;46665;51.558;-0.448;2022-12-17T15:49:06;1.20;;;0.85;;
60831;SDS011;46665;51.558;-0.448;2022-12-17T15:51:50;1.55;;;1.30;;
60831;SDS011;46665;51.558;-0.448;2022-12-17T15:54:34;3.88;;;0.98;;
60831;SDS011;46665;51.558;-0.448;2022-12-17T15:57:18;2.75;;;1.58;;
60831;SDS011;46665;51.558;-0.448;2022-12-17T16:00:03;0.77;;;0.68;;
60831;SDS011;46665;51.558;-0.448;2022-12-17T16:02:47;3.10;;;1.95;;
60831;SDS011;46665;51.558;-0.448;2022-12-17T16:05:32;1.63;;;1.52;;
60831;SDS011;46665;51.558;-0.448;2022-12-17T16:08:16;3.83;;;1.90;;
60831;SDS011;46665;51.558;-0.448;2022-12-17T16:10:59;1.67;;;1.45;;
60831;SDS011;46665;51.558;-0.448;2022-12-17T16:13:51;1.33;;;1.23;;
60831;SDS011;46665;51.558;-0.448;2022-12-17T16:16:37;2.72;;;1.20;;
60831;SDS011;46665;51.558;-0.448;2022-12-17T16:19:21;3.15;;;1.80;;
60831;SDS011;46665;51.558;-0.448;2022-12-17T16:22:06;1.42;;;1.02;;
60831;SDS011;46665;51.558;-0.448;2022-12-17T16:24:50;2.63;;;1.27;;
60831;SDS011;46665;51.558;-0.448;2022-12-17T16:27:35;2.20;;;1.63;;
60831;SDS011;46665;51.558;-0.448;2022-12-17T16:30:19;3.30;;;1.42;;
60831;SDS011;46665;51.558;-0.448;2022-12-17T16:33:03;1.35;;;1.15;;
60831;SDS011;46665;51.558;-0.448;2022-12-17T16:35:51;6.75;;;1.50;;
60831;SDS011;46665;51.558;-0.448;2022-12-17T16:38:40;5.85;;;1.75;;
60831;SDS011;46665;51.558;-0.448;2022-12-17T16:41:34;8.68;;;1.40;;
60831;SDS011;46665;51.558;-0.448;2022-12-17T16:44:18;1.42;;;1.33;;
60831;SDS011;46665;51.558;-0.448;2022-12-17T16:47:02;4.85;;;1.33;;
60831;SDS011;46665;51.558;-0.448;2022-12-17T16:49:47;1.48;;;1.17;;
60831;SDS011;46665;51.558;-0.448;2022-12-17T16:52:33;1.25;;;1.23;;
60831;SDS011;46665;51.558;-0.448;2022-12-17T16:55:17;2.75;;;1.23;;
60831;SDS011;46665;51.558;-0.448;2022-12-17T16:58:01;1.15;;;1.05;;
60831;SDS011;46665;51.558;-0.448;2022-12-17T17:00:47;6.05;;;1.48;;
60831;SDS011;46665;51.558;-0.448;2022-12-17T17:03:40;3.22;;;1.60;;
60831;SDS011;46665;51.558;-0.448;2022-12-17T17:06:25;2.22;;;1.33;;
60831;SDS011;46665;51.558;-0.448;2022-12-17T17:09:10;13.82;;;1.67;;
60831;SDS011;46665;51.558;-0.448;2022-12-17T17:11:55;1.90;;;1.58;;
60831;SDS011;46665;51.558;-0.448;2022-12-17T17:14:41;1.50;;;1.33;;
60831;SDS011;46665;51.558;-0.448;2022-12-17T17:17:26;4.13;;;1.98;;
60831;SDS011;46665;51.558;-0.448;2022-12-17T17:20:10;3.95;;;2.00;;
60831;SDS011;46665;51.558;-0.448;2022-12-17T17:22:55;7.53;;;2.08;;
60831;SDS011;46665;51.558;-0.448;2022-12-17T17:25:39;5.22;;;2.83;;
60831;SDS011;46665;51.558;-0.448;2022-12-17T17:28:23;3.35;;;1.83;;
60831;SDS011;46665;51.558;-0.448;2022-12-17T17:31:09;1.92;;;1.45;;
60831;SDS011;46665;51.558;-0.448;2022-12-17T17:33:54;3.63;;;2.15;;
60831;SDS011;46665;51.558;-0.448;2022-12-17T17:36:39;5.57;;;2.53;;
60831;SDS011;46665;51.558;-0.448;2022-12-17T17:39:23;1.67;;;1.58;;
60831;SDS011;46665;51.558;-0.448;2022-12-17T17:42:08;6.75;;;2.38;;
60831;SDS011;46665;51.558;-0.448;2022-12-17T17:44:52;3.85;;;1.60;;
60831;SDS011;46665;51.558;-0.448;2022-12-17T17:47:36;5.15;;;1.88;;
60831;SDS011;46665;51.558;-0.448;2022-12-17T17:50:19;2.15;;;1.83;;
60831;SDS011;46665;51.558;-0.448;2022-12-17T17:53:03;9.32;;;1.92;;
60831;SDS011;46665;51.558;-0.448;2022-12-17T17:55:47;7.88;;;2.40;;
60831;SDS011;46665;51.558;-0.448;2022-12-17T17:58:31;3.33;;;2.60;;
60831;SDS011;46665;51.558;-0.448;2022-12-17T18:01:17;2.63;;;2.17;;
60831;SDS011;46665;51.558;-0.448;2022-12-17T18:04:21;6.85;;;2.47;;
60831;SDS011;46665;51.558;-0.448;2022-12-17T18:07:06;3.58;;;2.25;;
60831;SDS011;46665;51.558;-0.448;2022-12-17T18:09:50;2.67;;;2.47;;
60831;SDS011;46665;51.558;-0.448;2022-12-17T18:12:34;4.20;;;2.00;;
60831;SDS011;46665;51.558;-0.448;2022-12-17T18:15:37;2.00;;;1.85;;
60831;SDS011;46665;51.558;-0.448;2022-12-17T18:18:21;1.73;;;1.48;;
60831;SDS011;46665;51.558;-0.448;2022-12-17T18:21:10;1.63;;;1.52;;
60831;SDS011;46665;51.558;-0.448;2022-12-17T18:24:02;2.28;;;2.03;;
60831;SDS011;46665;51.558;-0.448;2022-12-17T18:26:50;7.05;;;2.65;;
60831;SDS011;46665;51.558;-0.448;2022-12-17T18:29:34;6.25;;;2.92;;
60831;SDS011;46665;51.558;-0.448;2022-12-17T18:32:18;2.10;;;1.90;;
60831;SDS011;46665;51.558;-0.448;2022-12-17T18:35:02;3.50;;;2.60;;
60831;SDS011;46665;51.558;-0.448;2022-12-17T18:37:47;3.75;;;2.53;;
60831;SDS011;46665;51.558;-0.448;2022-12-17T18:40:31;2.13;;;1.92;;
60831;SDS011;46665;51.558;-0.448;2022-12-17T18:43:17;3.75;;;2.53;;
60831;SDS011;46665;51.558;-0.448;2022-12-17T18:46:07;6.68;;;3.25;;
60831;SDS011;46665;51.558;-0.448;2022-12-17T18:48:52;2.55;;;2.35;;
60831;SDS011;46665;51.558;-0.448;2022-12-17T18:51:40;2.70;;;1.95;;
60831;SDS011;46665;51.558;-0.448;2022-12-17T18:54:27;21.25;;;2.67;;
60831;SDS011;46665;51.558;-0.448;2022-12-17T18:59:56;3.17;;;2.33;;
60831;SDS011;46665;51.558;-0.448;2022-12-17T19:02:40;3.25;;;2.53;;
60831;SDS011;46665;51.558;-0.448;2022-12-17T19:05:24;5.35;;;2.35;;